sensor_id;sensor_type;location;lat;lon;timestamp;P1;durP1;ratioP1;P2;durP2;ratioP2
70757;SDS011;59316;52.964;7.102;2023-11-19T00:00:00;33.35;;;12.48;;
70757;SDS011;59316;52.964;7.102;2023-11-19T00:05:21;27.50;;;11.43;;
70757;SDS011;59316;52.964;7.102;2023-11-19T00:10:42;25.92;;;10.48;;
70757;SDS011;59316;52.964;7.102;2023-11-19T00:16:03;23.08;;;10.43;;
70757;SDS011;59316;52.964;7.102;2023-11-19T00:21:25;27.20;;;10.68;;
70757;SDS011;59316;52.964;7.102;2023-11-19T00:26:46;28.10;;;11.48;;
70757;SDS011;59316;52.964;7.102;2023-11-19T00:32:07;27.27;;;10.43;;
70757;SDS011;59316;52.964;7.102;2023-11-19T00:37:28;27.98;;;11.20;;
70757;SDS011;59316;52.964;7.102;2023-11-19T00:42:49;25.63;;;11.23;;
70757;SDS011;59316;52.964;7.102;2023-11-19T00:48:10;27.58;;;10.93;;
70757;SDS011;59316;52.964;7.102;2023-11-19T00:53:32;30.92;;;11.63;;
70757;SDS011;59316;52.964;7.102;2023-11-19T00:58:54;31.35;;;13.65;;
70757;SDS011;59316;52.964;7.102;2023-11-19T01:04:15;34.80;;;13.38;;
70757;SDS011;59316;52.964;7.102;2023-11-19T01:09:36;29.45;;;13.60;;
70757;SDS011;59316;52.964;7.102;2023-11-19T01:14:57;34.92;;;14.55;;
70757;SDS011;59316;52.964;7.102;2023-11-19T01:20:19;37.13;;;14.95;;
70757;SDS011;59316;52.964;7.102;2023-11-19T01:25:42;48.03;;;16.52;;
70757;SDS011;59316;52.964;7.102;2023-11-19T01:31:03;42.55;;;15.70;;
70757;SDS011;59316;52.964;7.102;2023-11-19T01:36:24;37.35;;;16.00;;
70757;SDS011;59316;52.964;7.102;2023-11-19T01:41:45;46.35;;;16.48;;
70757;SDS011;59316;52.964;7.102;2023-11-19T01:47:06;46.13;;;17.08;;
70757;SDS011;59316;52.964;7.102;2023-11-19T01:52:27;41.10;;;15.85;;
70757;SDS011;59316;52.964;7.102;2023-11-19T01:57:49;45.45;;;16.05;;
70757;SDS011;59316;52.964;7.102;2023-11-19T02:03:11;37.47;;;15.55;;
70757;SDS011;59316;52.964;7.102;2023-11-19T02:08:32;45.58;;;15.70;;
70757;SDS011;59316;52.964;7.102;2023-11-19T02:13:54;42.08;;;14.70;;
70757;SDS011;59316;52.964;7.102;2023-11-19T02:19:15;39.85;;;15.52;;
70757;SDS011;59316;52.964;7.102;2023-11-19T02:24:39;36.28;;;14.55;;
70757;SDS011;59316;52.964;7.102;2023-11-19T02:30:00;43.08;;;14.23;;
70757;SDS011;59316;52.964;7.102;2023-11-19T02:35:21;43.42;;;14.02;;
70757;SDS011;59316;52.964;7.102;2023-11-19T02:40:42;35.42;;;13.68;;
70757;SDS011;59316;52.964;7.102;2023-11-19T02:46:04;39.97;;;13.50;;
70757;SDS011;59316;52.964;7.102;2023-11-19T02:51:35;38.28;;;13.27;;
70757;SDS011;59316;52.964;7.102;2023-11-19T02:56:58;29.95;;;11.13;;
70757;SDS011;59316;52.964;7.102;2023-11-19T03:02:19;40.60;;;11.27;;
70757;SDS011;59316;52.964;7.102;2023-11-19T03:07:40;38.30;;;10.00;;
70757;SDS011;59316;52.964;7.102;2023-11-19T03:13:02;30.23;;;7.85;;
70757;SDS011;59316;52.964;7.102;2023-11-19T03:18:23;26.65;;;6.72;;
70757;SDS011;59316;52.964;7.102;2023-11-19T03:23:44;29.60;;;6.15;;
70757;SDS011;59316;52.964;7.102;2023-11-19T03:29:05;29.92;;;5.65;;
70757;SDS011;59316;52.964;7.102;2023-11-19T03:34:26;26.58;;;5.63;;
70757;SDS011;59316;52.964;7.102;2023-11-19T03:39:47;29.48;;;4.60;;
70757;SDS011;59316;52.964;7.102;2023-11-19T03:45:09;26.63;;;4.45;;
70757;SDS011;59316;52.964;7.102;2023-11-19T03:50:30;26.25;;;4.70;;
70757;SDS011;59316;52.964;7.102;2023-11-19T03:55:51;25.83;;;4.50;;
70757;SDS011;59316;52.964;7.102;2023-11-19T04:01:12;23.35;;;4.70;;
70757;SDS011;59316;52.964;7.102;2023-11-19T04:06:33;27.23;;;4.72;;
70757;SDS011;59316;52.964;7.102;2023-11-19T04:11:54;35.92;;;5.25;;
70757;SDS011;59316;52.964;7.102;2023-11-19T04:17:16;20.80;;;4.03;;
70757;SDS011;59316;52.964;7.102;2023-11-19T04:22:37;32.15;;;4.43;;
70757;SDS011;59316;52.964;7.102;2023-11-19T04:27:58;32.10;;;4.82;;
70757;SDS011;59316;52.964;7.102;2023-11-19T04:33:19;25.42;;;4.22;;
70757;SDS011;59316;52.964;7.102;2023-11-19T04:38:40;30.10;;;4.88;;
70757;SDS011;59316;52.964;7.102;2023-11-19T04:44:01;26.65;;;4.45;;
70757;SDS011;59316;52.964;7.102;2023-11-19T04:49:22;31.25;;;4.53;;
70757;SDS011;59316;52.964;7.102;2023-11-19T04:54:43;29.98;;;4.57;;
70757;SDS011;59316;52.964;7.102;2023-11-19T05:00:05;25.10;;;5.72;;
70757;SDS011;59316;52.964;7.102;2023-11-19T05:05:36;22.48;;;4.38;;
70757;SDS011;59316;52.964;7.102;2023-11-19T05:10:57;33.60;;;5.05;;
70757;SDS011;59316;52.964;7.102;2023-11-19T05:16:18;26.27;;;4.63;;
70757;SDS011;59316;52.964;7.102;2023-11-19T05:21:41;30.83;;;5.07;;
70757;SDS011;59316;52.964;7.102;2023-11-19T05:27:03;34.83;;;4.83;;
70757;SDS011;59316;52.964;7.102;2023-11-19T05:32:24;39.30;;;4.53;;
70757;SDS011;59316;52.964;7.102;2023-11-19T05:37:45;23.35;;;3.92;;
70757;SDS011;59316;52.964;7.102;2023-11-19T05:43:06;30.50;;;4.90;;
70757;SDS011;59316;52.964;7.102;2023-11-19T05:48:27;25.50;;;4.00;;
70757;SDS011;59316;52.964;7.102;2023-11-19T05:53:48;34.92;;;4.63;;
70757;SDS011;59316;52.964;7.102;2023-11-19T05:59:09;29.38;;;5.78;;
70757;SDS011;59316;52.964;7.102;2023-11-19T06:04:30;32.60;;;4.20;;
70757;SDS011;59316;52.964;7.102;2023-11-19T06:09:51;29.70;;;4.50;;
70757;SDS011;59316;52.964;7.102;2023-11-19T06:15:12;34.05;;;4.72;;
70757;SDS011;59316;52.964;7.102;2023-11-19T06:20:33;26.70;;;4.20;;
70757;SDS011;59316;52.964;7.102;2023-11-19T06:25:57;31.52;;;4.63;;
70757;SDS011;59316;52.964;7.102;2023-11-19T06:31:18;35.22;;;4.68;;
70757;SDS011;59316;52.964;7.102;2023-11-19T06:36:39;35.63;;;5.78;;
70757;SDS011;59316;52.964;7.102;2023-11-19T06:42:00;32.45;;;5.65;;
70757;SDS011;59316;52.964;7.102;2023-11-19T06:47:21;35.10;;;5.25;;
70757;SDS011;59316;52.964;7.102;2023-11-19T06:52:42;22.00;;;4.65;;
70757;SDS011;59316;52.964;7.102;2023-11-19T06:58:03;41.30;;;4.70;;
70757;SDS011;59316;52.964;7.102;2023-11-19T07:03:25;35.05;;;5.18;;
70757;SDS011;59316;52.964;7.102;2023-11-19T07:08:46;33.28;;;3.92;;
70757;SDS011;59316;52.964;7.102;2023-11-19T07:14:07;30.95;;;4.40;;
70757;SDS011;59316;52.964;7.102;2023-11-19T07:19:29;33.88;;;4.47;;
70757;SDS011;59316;52.964;7.102;2023-11-19T07:24:50;30.63;;;4.18;;
70757;SDS011;59316;52.964;7.102;2023-11-19T07:30:11;27.15;;;4.78;;
70757;SDS011;59316;52.964;7.102;2023-11-19T07:35:32;32.72;;;5.18;;
70757;SDS011;59316;52.964;7.102;2023-11-19T07:40:53;31.25;;;4.63;;
70757;SDS011;59316;52.964;7.102;2023-11-19T07:46:17;25.87;;;5.13;;
70757;SDS011;59316;52.964;7.102;2023-11-19T07:51:38;31.08;;;4.70;;
70757;SDS011;59316;52.964;7.102;2023-11-19T07:56:59;24.73;;;4.53;;
70757;SDS011;59316;52.964;7.102;2023-11-19T08:02:20;35.75;;;5.00;;
70757;SDS011;59316;52.964;7.102;2023-11-19T08:07:41;34.72;;;5.35;;
70757;SDS011;59316;52.964;7.102;2023-11-19T08:13:02;33.10;;;5.90;;
70757;SDS011;59316;52.964;7.102;2023-11-19T08:18:24;40.70;;;5.78;;
70757;SDS011;59316;52.964;7.102;2023-11-19T08:23:45;27.48;;;5.45;;
70757;SDS011;59316;52.964;7.102;2023-11-19T08:29:06;35.10;;;5.63;;
70757;SDS011;59316;52.964;7.102;2023-11-19T08:34:27;32.17;;;4.45;;
70757;SDS011;59316;52.964;7.102;2023-11-19T08:39:48;27.23;;;4.18;;
70757;SDS011;59316;52.964;7.102;2023-11-19T08:45:10;28.80;;;4.35;;
70757;SDS011;59316;52.964;7.102;2023-11-19T08:50:31;35.53;;;4.80;;
70757;SDS011;59316;52.964;7.102;2023-11-19T08:55:52;29.98;;;4.68;;
70757;SDS011;59316;52.964;7.102;2023-11-19T09:01:13;35.08;;;4.28;;
70757;SDS011;59316;52.964;7.102;2023-11-19T09:06:35;25.38;;;3.55;;
70757;SDS011;59316;52.964;7.102;2023-11-19T09:11:57;30.55;;;4.55;;
70757;SDS011;59316;52.964;7.102;2023-11-19T09:17:18;32.42;;;4.05;;
70757;SDS011;59316;52.964;7.102;2023-11-19T09:22:39;30.48;;;4.50;;
70757;SDS011;59316;52.964;7.102;2023-11-19T09:28:00;32.25;;;4.40;;
70757;SDS011;59316;52.964;7.102;2023-11-19T09:33:21;37.95;;;4.50;;
70757;SDS011;59316;52.964;7.102;2023-11-19T09:38:42;26.05;;;4.20;;
70757;SDS011;59316;52.964;7.102;2023-11-19T09:44:04;35.42;;;4.28;;
70757;SDS011;59316;52.964;7.102;2023-11-19T09:49:25;30.13;;;4.47;;
70757;SDS011;59316;52.964;7.102;2023-11-19T09:54:49;35.40;;;4.70;;
70757;SDS011;59316;52.964;7.102;2023-11-19T10:00:11;33.75;;;4.32;;
70757;SDS011;59316;52.964;7.102;2023-11-19T10:05:34;27.98;;;3.78;;
70757;SDS011;59316;52.964;7.102;2023-11-19T10:10:55;30.05;;;3.92;;
70757;SDS011;59316;52.964;7.102;2023-11-19T10:16:17;29.00;;;4.80;;
70757;SDS011;59316;52.964;7.102;2023-11-19T10:21:38;31.63;;;3.90;;
70757;SDS011;59316;52.964;7.102;2023-11-19T10:27:02;31.25;;;4.38;;
70757;SDS011;59316;52.964;7.102;2023-11-19T10:32:27;29.52;;;4.25;;
70757;SDS011;59316;52.964;7.102;2023-11-19T10:37:48;26.23;;;4.60;;
70757;SDS011;59316;52.964;7.102;2023-11-19T10:43:09;28.85;;;3.75;;
70757;SDS011;59316;52.964;7.102;2023-11-19T10:48:30;26.63;;;3.13;;
70757;SDS011;59316;52.964;7.102;2023-11-19T10:53:51;34.08;;;4.88;;
70757;SDS011;59316;52.964;7.102;2023-11-19T10:59:13;35.42;;;4.65;;
70757;SDS011;59316;52.964;7.102;2023-11-19T11:04:39;28.27;;;4.13;;
70757;SDS011;59316;52.964;7.102;2023-11-19T11:10:01;25.07;;;3.93;;
70757;SDS011;59316;52.964;7.102;2023-11-19T11:15:23;39.47;;;4.65;;
70757;SDS011;59316;52.964;7.102;2023-11-19T11:20:48;28.70;;;4.38;;
70757;SDS011;59316;52.964;7.102;2023-11-19T11:37:19;35.30;;;4.35;;
70757;SDS011;59316;52.964;7.102;2023-11-19T11:43:02;23.92;;;4.10;;
70757;SDS011;59316;52.964;7.102;2023-11-19T11:48:23;9.57;;;2.15;;
70757;SDS011;59316;52.964;7.102;2023-11-19T11:53:46;17.42;;;2.95;;
70757;SDS011;59316;52.964;7.102;2023-11-19T11:59:20;25.25;;;4.45;;
70757;SDS011;59316;52.964;7.102;2023-11-19T12:04:41;27.50;;;4.05;;
70757;SDS011;59316;52.964;7.102;2023-11-19T12:10:06;32.47;;;3.95;;
70757;SDS011;59316;52.964;7.102;2023-11-19T12:15:29;36.78;;;4.10;;
70757;SDS011;59316;52.964;7.102;2023-11-19T12:20:50;28.40;;;4.65;;
70757;SDS011;59316;52.964;7.102;2023-11-19T12:26:20;20.17;;;2.78;;
70757;SDS011;59316;52.964;7.102;2023-11-19T12:31:54;19.95;;;3.53;;
70757;SDS011;59316;52.964;7.102;2023-11-19T12:37:34;26.90;;;3.88;;
70757;SDS011;59316;52.964;7.102;2023-11-19T12:43:02;27.67;;;3.42;;
70757;SDS011;59316;52.964;7.102;2023-11-19T12:48:23;30.40;;;4.32;;
70757;SDS011;59316;52.964;7.102;2023-11-19T12:53:51;32.55;;;4.57;;
70757;SDS011;59316;52.964;7.102;2023-11-19T12:59:12;30.60;;;4.75;;
70757;SDS011;59316;52.964;7.102;2023-11-19T13:04:33;26.42;;;3.20;;
70757;SDS011;59316;52.964;7.102;2023-11-19T13:10:01;18.30;;;3.30;;
70757;SDS011;59316;52.964;7.102;2023-11-19T13:15:23;16.30;;;3.20;;
70757;SDS011;59316;52.964;7.102;2023-11-19T13:20:44;15.25;;;2.90;;
70757;SDS011;59316;52.964;7.102;2023-11-19T13:26:05;15.35;;;2.92;;
70757;SDS011;59316;52.964;7.102;2023-11-19T13:31:26;15.30;;;2.60;;
70757;SDS011;59316;52.964;7.102;2023-11-19T13:36:47;22.77;;;3.65;;
70757;SDS011;59316;52.964;7.102;2023-11-19T13:42:08;18.05;;;2.92;;
70757;SDS011;59316;52.964;7.102;2023-11-19T13:47:32;23.55;;;4.20;;
70757;SDS011;59316;52.964;7.102;2023-11-19T13:52:53;18.92;;;2.95;;
70757;SDS011;59316;52.964;7.102;2023-11-19T13:58:15;25.77;;;3.45;;
70757;SDS011;59316;52.964;7.102;2023-11-19T14:03:36;24.15;;;2.97;;
70757;SDS011;59316;52.964;7.102;2023-11-19T14:08:57;27.35;;;3.95;;
70757;SDS011;59316;52.964;7.102;2023-11-19T14:14:18;24.40;;;2.75;;
70757;SDS011;59316;52.964;7.102;2023-11-19T14:19:39;21.75;;;3.63;;
70757;SDS011;59316;52.964;7.102;2023-11-19T14:25:00;30.80;;;4.13;;
70757;SDS011;59316;52.964;7.102;2023-11-19T14:30:21;26.17;;;3.55;;
70757;SDS011;59316;52.964;7.102;2023-11-19T14:35:43;32.80;;;3.58;;
70757;SDS011;59316;52.964;7.102;2023-11-19T14:41:04;26.30;;;3.97;;
70757;SDS011;59316;52.964;7.102;2023-11-19T14:46:25;20.55;;;3.15;;
70757;SDS011;59316;52.964;7.102;2023-11-19T14:51:46;29.40;;;3.70;;
70757;SDS011;59316;52.964;7.102;2023-11-19T14:57:08;20.30;;;2.35;;
70757;SDS011;59316;52.964;7.102;2023-11-19T15:02:29;25.63;;;3.22;;
70757;SDS011;59316;52.964;7.102;2023-11-19T15:07:50;34.72;;;3.45;;
70757;SDS011;59316;52.964;7.102;2023-11-19T15:13:11;19.17;;;4.22;;
70757;SDS011;59316;52.964;7.102;2023-11-19T15:18:32;24.75;;;3.75;;
70757;SDS011;59316;52.964;7.102;2023-11-19T15:23:53;19.88;;;2.97;;
70757;SDS011;59316;52.964;7.102;2023-11-19T15:29:14;33.10;;;4.10;;
70757;SDS011;59316;52.964;7.102;2023-11-19T15:34:35;24.25;;;3.10;;
70757;SDS011;59316;52.964;7.102;2023-11-19T15:39:56;22.23;;;3.47;;
70757;SDS011;59316;52.964;7.102;2023-11-19T15:45:17;24.70;;;3.20;;
70757;SDS011;59316;52.964;7.102;2023-11-19T15:50:38;19.92;;;2.90;;
70757;SDS011;59316;52.964;7.102;2023-11-19T15:55:59;24.38;;;4.20;;
70757;SDS011;59316;52.964;7.102;2023-11-19T16:01:21;23.15;;;3.22;;
70757;SDS011;59316;52.964;7.102;2023-11-19T16:06:42;19.13;;;3.78;;
70757;SDS011;59316;52.964;7.102;2023-11-19T16:12:03;25.88;;;3.35;;
70757;SDS011;59316;52.964;7.102;2023-11-19T16:17:24;24.55;;;3.08;;
70757;SDS011;59316;52.964;7.102;2023-11-19T16:22:45;28.98;;;3.13;;
70757;SDS011;59316;52.964;7.102;2023-11-19T16:28:06;28.25;;;3.63;;
70757;SDS011;59316;52.964;7.102;2023-11-19T16:33:27;27.40;;;3.08;;
70757;SDS011;59316;52.964;7.102;2023-11-19T16:38:50;26.05;;;3.28;;
70757;SDS011;59316;52.964;7.102;2023-11-19T16:44:11;29.98;;;3.72;;
70757;SDS011;59316;52.964;7.102;2023-11-19T16:49:32;23.77;;;3.17;;
70757;SDS011;59316;52.964;7.102;2023-11-19T16:54:56;25.95;;;3.13;;
70757;SDS011;59316;52.964;7.102;2023-11-19T17:00:17;25.58;;;3.28;;
70757;SDS011;59316;52.964;7.102;2023-11-19T17:05:39;22.35;;;3.58;;
70757;SDS011;59316;52.964;7.102;2023-11-19T17:11:00;22.17;;;3.30;;
70757;SDS011;59316;52.964;7.102;2023-11-19T17:16:22;26.35;;;3.53;;
70757;SDS011;59316;52.964;7.102;2023-11-19T17:21:43;19.20;;;2.58;;
70757;SDS011;59316;52.964;7.102;2023-11-19T17:27:04;24.17;;;3.30;;
70757;SDS011;59316;52.964;7.102;2023-11-19T17:32:25;23.45;;;3.58;;
70757;SDS011;59316;52.964;7.102;2023-11-19T17:37:46;24.40;;;3.72;;
70757;SDS011;59316;52.964;7.102;2023-11-19T17:43:07;28.05;;;3.38;;
70757;SDS011;59316;52.964;7.102;2023-11-19T17:48:28;29.80;;;3.45;;
70757;SDS011;59316;52.964;7.102;2023-11-19T17:53:49;26.05;;;3.45;;
70757;SDS011;59316;52.964;7.102;2023-11-19T17:59:10;29.30;;;4.72;;
70757;SDS011;59316;52.964;7.102;2023-11-19T18:04:31;25.60;;;4.13;;
70757;SDS011;59316;52.964;7.102;2023-11-19T18:09:52;21.98;;;3.15;;
70757;SDS011;59316;52.964;7.102;2023-11-19T18:15:13;26.63;;;3.35;;
70757;SDS011;59316;52.964;7.102;2023-11-19T18:20:34;17.67;;;3.17;;
70757;SDS011;59316;52.964;7.102;2023-11-19T18:25:55;26.88;;;4.55;;
70757;SDS011;59316;52.964;7.102;2023-11-19T18:31:17;21.60;;;3.55;;
70757;SDS011;59316;52.964;7.102;2023-11-19T18:36:38;24.20;;;3.60;;
70757;SDS011;59316;52.964;7.102;2023-11-19T18:41:59;32.90;;;4.18;;
70757;SDS011;59316;52.964;7.102;2023-11-19T18:47:20;27.27;;;4.22;;
70757;SDS011;59316;52.964;7.102;2023-11-19T18:52:41;26.30;;;3.65;;
70757;SDS011;59316;52.964;7.102;2023-11-19T18:58:02;23.05;;;3.97;;
70757;SDS011;59316;52.964;7.102;2023-11-19T19:03:23;38.50;;;4.38;;
70757;SDS011;59316;52.964;7.102;2023-11-19T19:08:44;27.95;;;4.68;;
70757;SDS011;59316;52.964;7.102;2023-11-19T19:14:05;23.83;;;3.75;;
70757;SDS011;59316;52.964;7.102;2023-11-19T19:19:26;24.33;;;3.97;;
70757;SDS011;59316;52.964;7.102;2023-11-19T19:24:48;15.68;;;4.20;;
70757;SDS011;59316;52.964;7.102;2023-11-19T19:30:09;27.63;;;4.68;;
70757;SDS011;59316;52.964;7.102;2023-11-19T19:35:31;19.33;;;4.38;;
70757;SDS011;59316;52.964;7.102;2023-11-19T19:40:52;22.20;;;4.47;;
70757;SDS011;59316;52.964;7.102;2023-11-19T19:46:13;23.95;;;4.82;;
70757;SDS011;59316;52.964;7.102;2023-11-19T19:51:34;28.52;;;4.13;;
70757;SDS011;59316;52.964;7.102;2023-11-19T19:56:55;14.13;;;4.15;;
70757;SDS011;59316;52.964;7.102;2023-11-19T20:02:17;18.88;;;4.32;;
70757;SDS011;59316;52.964;7.102;2023-11-19T20:07:41;18.70;;;4.13;;
70757;SDS011;59316;52.964;7.102;2023-11-19T20:13:03;15.45;;;4.00;;
70757;SDS011;59316;52.964;7.102;2023-11-19T20:18:24;19.23;;;4.15;;
70757;SDS011;59316;52.964;7.102;2023-11-19T20:29:09;11.85;;;3.35;;
70757;SDS011;59316;52.964;7.102;2023-11-19T20:34:30;7.93;;;2.70;;
70757;SDS011;59316;52.964;7.102;2023-11-19T20:39:51;10.30;;;3.28;;
70757;SDS011;59316;52.964;7.102;2023-11-19T20:45:13;5.88;;;1.98;;
70757;SDS011;59316;52.964;7.102;2023-11-19T20:50:34;4.82;;;2.00;;
70757;SDS011;59316;52.964;7.102;2023-11-19T20:55:55;2.42;;;1.10;;
70757;SDS011;59316;52.964;7.102;2023-11-19T21:01:16;6.80;;;2.50;;
70757;SDS011;59316;52.964;7.102;2023-11-19T21:06:37;2.83;;;1.60;;
70757;SDS011;59316;52.964;7.102;2023-11-19T21:12:01;4.68;;;1.20;;
70757;SDS011;59316;52.964;7.102;2023-11-19T21:17:24;3.03;;;0.88;;
70757;SDS011;59316;52.964;7.102;2023-11-19T21:22:45;3.30;;;1.35;;
70757;SDS011;59316;52.964;7.102;2023-11-19T21:28:06;7.50;;;1.50;;
70757;SDS011;59316;52.964;7.102;2023-11-19T21:33:28;3.60;;;1.80;;
70757;SDS011;59316;52.964;7.102;2023-11-19T21:38:49;8.60;;;2.58;;
70757;SDS011;59316;52.964;7.102;2023-11-19T21:44:10;8.52;;;3.53;;
70757;SDS011;59316;52.964;7.102;2023-11-19T21:49:31;8.50;;;3.08;;
70757;SDS011;59316;52.964;7.102;2023-11-19T21:54:52;7.90;;;3.38;;
70757;SDS011;59316;52.964;7.102;2023-11-19T22:00:13;15.82;;;3.80;;
70757;SDS011;59316;52.964;7.102;2023-11-19T22:05:34;12.20;;;3.63;;
70757;SDS011;59316;52.964;7.102;2023-11-19T22:10:55;16.27;;;4.57;;
70757;SDS011;59316;52.964;7.102;2023-11-19T22:16:16;22.80;;;4.78;;
70757;SDS011;59316;52.964;7.102;2023-11-19T22:21:37;28.88;;;5.65;;
70757;SDS011;59316;52.964;7.102;2023-11-19T22:26:58;19.65;;;4.03;;
70757;SDS011;59316;52.964;7.102;2023-11-19T22:32:19;26.08;;;4.40;;
70757;SDS011;59316;52.964;7.102;2023-11-19T22:37:43;21.20;;;3.40;;
70757;SDS011;59316;52.964;7.102;2023-11-19T22:43:05;20.30;;;3.60;;
70757;SDS011;59316;52.964;7.102;2023-11-19T22:48:26;10.38;;;2.75;;
70757;SDS011;59316;52.964;7.102;2023-11-19T22:53:47;13.25;;;2.78;;
70757;SDS011;59316;52.964;7.102;2023-11-19T22:59:08;8.50;;;2.40;;
70757;SDS011;59316;52.964;7.102;2023-11-19T23:04:29;13.82;;;2.72;;
70757;SDS011;59316;52.964;7.102;2023-11-19T23:09:50;2.75;;;0.80;;
70757;SDS011;59316;52.964;7.102;2023-11-19T23:15:31;1.45;;;0.50;;
70757;SDS011;59316;52.964;7.102;2023-11-19T23:20:52;3.25;;;1.27;;
70757;SDS011;59316;52.964;7.102;2023-11-19T23:26:13;0.70;;;0.40;;
70757;SDS011;59316;52.964;7.102;2023-11-19T23:31:34;1.20;;;0.35;;
70757;SDS011;59316;52.964;7.102;2023-11-19T23:36:55;1.73;;;0.55;;
70757;SDS011;59316;52.964;7.102;2023-11-19T23:42:16;2.30;;;0.80;;
70757;SDS011;59316;52.964;7.102;2023-11-19T23:47:37;5.13;;;1.10;;
70757;SDS011;59316;52.964;7.102;2023-11-19T23:52:59;7.90;;;1.50;;
70757;SDS011;59316;52.964;7.102;2023-11-19T23:58:19;6.35;;;1.60;;
